»·PEaware :: N418KY KPSC-KPSC

N418KY :: KPSC-KPSC

FLIGHT INFORMATION

Flight Status: Arrived
Operator: Privately registered:
United States
More flights under this callsign
Pilot: Yegor L. (19422)
Aircraft: CESSNA 172 SKYHAWK
(C172)
More flights by this aircraft type
Origin: KPSC Tri-Cities
United States
Destination: KPSC Tri-Cities
United States
More flights between these airports :: More routes between these airports
Route: +
File this flight plan on PilotEdge
Remarks:
Altitude:
(Current/Filed)
0ft
Speed:
(Current/Filed)
0kts
Departed: 13-Jun-18 09:42 AM
Arrived: 13-Jun-18 10:30 AM
Distance/Time
Traveled:
1nm/0:48
Distance/Time
To Go:
Arrived

Flight Plot

Page will automatically refresh every two minutes.

Flight plan parsing failed; only flown route is shown


Map Options




Map Legend


Flown Route
Filed Route
Departure Airport
Arrival Airport
Navaid (VOR, NDB)
Fix

Horizontal Profiles

Position Reports

Time Latitude Longitude Heading Altitude Ground
Speed
13-Jun-18 09:34 46.264437 -119.106067 251 410ft 0kts
13-Jun-18 09:35 46.264455 -119.106439 308 410ft 4kts
13-Jun-18 09:36 46.265842 -119.107855 241 410ft 0kts
13-Jun-18 09:37 46.266154 -119.108309 338 410ft 10kts
13-Jun-18 09:38 46.268552 -119.109012 314 409ft 0kts
13-Jun-18 09:39 46.268552 -119.109012 314 409ft 0kts
13-Jun-18 09:40 46.268899 -119.109819 225 408ft 0kts
13-Jun-18 09:41 46.268897 -119.109821 225 408ft 0kts
13-Jun-18 09:42 46.258692 -119.124129 222 729ft 85kts
13-Jun-18 09:43 46.252547 -119.108715 44 1166ft 87kts
13-Jun-18 09:44 46.269953 -119.085035 42 1666ft 86kts
13-Jun-18 09:45 46.290300 -119.072581 3 2203ft 83kts
13-Jun-18 09:46 46.313144 -119.066244 12 2763ft 83kts
13-Jun-18 09:47 46.332230 -119.063320 13 3199ft 85kts
13-Jun-18 09:48 46.354484 -119.054349 11 3843ft 83kts
13-Jun-18 09:49 46.377932 -119.048770 12 4361ft 91kts
13-Jun-18 09:50 46.405693 -119.037702 11 4513ft 112kts
13-Jun-18 09:51 46.437749 -119.026551 9 4540ft 123kts
13-Jun-18 09:52 46.469677 -119.017119 9 4520ft 111kts
13-Jun-18 09:53 46.499510 -119.008561 8 4513ft 108kts
13-Jun-18 09:54 46.528742 -119.000748 7 4511ft 107kts
13-Jun-18 09:55 46.557789 -118.993649 6 4510ft 106kts
13-Jun-18 09:56 46.588111 -118.987454 4 4523ft 113kts
13-Jun-18 09:57 46.619970 -118.982332 3 4527ft 116kts
13-Jun-18 09:58 46.652041 -118.978270 2 4526ft 116kts
13-Jun-18 09:59 46.684356 -118.975199 1 4525ft 116kts
13-Jun-18 10:00 46.716481 -118.973144 0 4523ft 116kts
13-Jun-18 10:01 46.747604 -118.965949 50 4514ft 120kts
13-Jun-18 10:02 46.728517 -118.946953 193 4427ft 109kts
13-Jun-18 10:03 46.698348 -118.953773 190 4417ft 111kts
13-Jun-18 10:04 46.668379 -118.960820 192 4407ft 109kts
13-Jun-18 10:05 46.637413 -118.970284 193 4331ft 120kts
13-Jun-18 10:06 46.604969 -118.981187 195 4225ft 115kts
13-Jun-18 10:07 46.574813 -118.993390 197 4118ft 111kts
13-Jun-18 10:08 46.545679 -119.007317 200 4018ft 110kts
13-Jun-18 10:09 46.517073 -119.023101 202 3919ft 110kts
13-Jun-18 10:10 46.488935 -119.040748 204 3818ft 110kts
13-Jun-18 10:11 46.461753 -119.049822 152 3903ft 101kts
13-Jun-18 10:12 46.463717 -119.010907 69 3992ft 117kts
13-Jun-18 10:13 46.476392 -118.965986 72 3984ft 123kts
13-Jun-18 10:14 46.487705 -118.920514 75 3651ft 107kts
13-Jun-18 10:15 46.480762 -118.885937 149 3328ft 86kts
13-Jun-18 10:16 46.461754 -118.867624 153 3207ft 83kts
13-Jun-18 10:17 46.440620 -118.850686 157 3220ft 89kts
13-Jun-18 10:18 46.418076 -118.835563 161 3223ft 90kts
13-Jun-18 10:19 46.401180 -118.849539 264 3166ft 94kts
13-Jun-18 10:20 46.399045 -118.887299 259 3139ft 94kts
13-Jun-18 10:21 46.383057 -118.913192 216 3150ft 87kts
13-Jun-18 10:22 46.366478 -118.939033 234 3139ft 90kts
13-Jun-18 10:23 46.352950 -118.968751 237 3167ft 88kts
13-Jun-18 10:24 46.341092 -119.000340 234 3049ft 90kts
13-Jun-18 10:25 46.327339 -119.029470 230 2841ft 73kts
13-Jun-18 10:26 46.312853 -119.053367 225 2436ft 78kts
13-Jun-18 10:27 46.298402 -119.073299 221 1920ft 73kts
13-Jun-18 10:28 46.282637 -119.094949 222 1015ft 80kts
13-Jun-18 10:29 46.267917 -119.115929 225 412ft 56kts
13-Jun-18 10:30 46.261491 -119.123008 137 400ft 9kts
13-Jun-18 10:31 46.261462 -119.122968 138 400ft 0kts
13-Jun-18 10:32 46.261317 -119.122788 134 401ft 8kts
13-Jun-18 10:33 46.260843 -119.116742 70 400ft 27kts
13-Jun-18 10:34 46.262988 -119.109245 69 406ft 29kts
13-Jun-18 10:35 46.264432 -119.105788 262 410ft 2kts
13-Jun-18 10:36 46.264428 -119.105814 248 410ft 0kts
13-Jun-18 10:37 46.264428 -119.105814 248 410ft 0kts

Navigation Log

Ident Type
Flight plan parsing failed, navigation log unavailable